This is the latest recevied weather packets stored in our database for station/object GW1596. If no packets are shown the sender has not sent any weather packets the latest 10 day(s).
| Time | Temp. | Humidity | Pressure | Rain* | Wind** | Luminosity | Snow |
|---|---|---|---|---|---|---|---|
| 1777623144 | 2.78° C | 99% | 1017.2 hPa | 0.25 mm | - | - | - |
| 1777621373 | 2.78° C | 99% | 1016.9 hPa | 0.25 mm | - | - | - |
| 1777620987 | 3.33° C | 99% | 1017.2 hPa | 0.25 mm | - | - | - |
| 1777618453 | 3.89° C | 99% | 1017.6 hPa | 0.25 mm | - | - | - |
| 1777615948 | 4.44° C | 98% | 1017.6 hPa | 0 mm | - | - | - |
| 1777613420 | 4.44° C | 98% | 1018.2 hPa | 0 mm | - | - | - |
| 1777605170 | 5.56° C | 97% | 1018.9 hPa | 1.27 mm | - | - | - |
| 1777604801 | 5.56° C | 97% | 1019.3 hPa | 1.27 mm | - | - | - |
| 1777602278 | 5.56° C | 97% | 1018.9 hPa | 1.27 mm | - | - | - |
| 1777600495 | 6.11° C | 97% | 1018.6 hPa | 1.27 mm | - | - | - |
| 1777598331 | 6.67° C | 96% | 1017.9 hPa | 1.27 mm | - | - | - |
| 1777595807 | 7.78° C | 93% | 1017.6 hPa | 1.27 mm | - | - | - |
| 1777592921 | 8.89° C | 87% | 1017.2 hPa | 1.27 mm | - | - | - |
| 1777590413 | 12.22° C | 71% | 1017.6 hPa | 1.27 mm | - | - | - |
| 1777588951 | 11.67° C | 73% | 1017.6 hPa | 1.27 mm | - | - | - |
| 1777584619 | 10.56° C | 86% | 1017.6 hPa | 1.27 mm | - | - | - |
| 1777583566 | 10° C | 76% | 1017.9 hPa | 1.02 mm | - | - | - |
| 1777573462 | 10° C | 79% | 1017.6 hPa | 0.25 mm | - | - | - |
| 1777573122 | 10° C | 77% | 1017.2 hPa | 0.25 mm | - | - | - |
| 1777568074 | 11.11° C | 75% | 1017.2 hPa | 0.25 mm | - | - | - |
| 1777564853 | 11.11° C | 71% | 1017.2 hPa | 0.25 mm | - | - | - |
| 1777564461 | 11.11° C | 69% | 1016.9 hPa | 0.25 mm | - | - | - |
| 1777555118 | 8.89° C | 92% | 1015.9 hPa | 0.25 mm | - | - | - |
| 1777554031 | 8.33° C | 99% | 1016.2 hPa | 0.25 mm | - | - | - |
| 1777552218 | 7.78° C | 99% | 1015.5 hPa | 0.25 mm | - | - | - |
* Rain since midnight (hover to see other rain measurements)
** Current wind speed in m/s (hover to see current wind gust speed)